createdAt,value
2022-10-05T00:01:28.928Z,97145.75
2022-10-05T00:04:08.288Z,97045.25
2022-10-05T00:06:37.131Z,96996.91
2022-10-05T00:09:17.394Z,97103.22
2022-10-05T00:11:46.550Z,97107.34
2022-10-05T00:14:20.935Z,97059.31
2022-10-05T00:16:51.621Z,97081.13
2022-10-05T00:19:25.231Z,97083.88
2022-10-05T00:21:53.556Z,97043.00
2022-10-05T00:24:21.949Z,97046.44
2022-10-05T00:26:55.390Z,97063.59
2022-10-05T00:29:25.998Z,97086.63
2022-10-05T00:31:55.724Z,97063.56
2022-10-05T00:34:25.873Z,97133.06
2022-10-05T00:36:54.103Z,97072.56
2022-10-05T00:39:22.320Z,97096.06
2022-10-05T00:42:24.323Z,97080.56
2022-10-05T00:44:59.381Z,97100.03
2022-10-05T00:47:50.790Z,97060.41
2022-10-05T00:50:43.435Z,97056.53
2022-10-05T00:53:28.357Z,97085.66
2022-10-05T00:56:05.130Z,97082.47
2022-10-05T00:58:50.015Z,97004.13
2022-10-05T01:01:23.103Z,97062.44
2022-10-05T01:04:03.322Z,97039.81
2022-10-05T01:06:40.819Z,97075.53
2022-10-05T01:09:19.605Z,97051.53
2022-10-05T01:11:57.455Z,97073.63
2022-10-05T01:14:34.647Z,97032.78
2022-10-05T01:17:12.947Z,96986.72
2022-10-05T01:20:18.306Z,97060.53
2022-10-05T01:23:09.157Z,97079.66
2022-10-05T01:25:47.892Z,97062.31
2022-10-05T01:28:23.447Z,97090.44
2022-10-05T01:31:01.336Z,97070.59
2022-10-05T01:33:35.519Z,97056.78
2022-10-05T01:36:13.284Z,97107.00
2022-10-05T01:38:50.285Z,97063.53
2022-10-05T01:41:32.137Z,97020.91
2022-10-05T01:44:07.592Z,97035.91
2022-10-05T01:46:41.955Z,97044.31
2022-10-05T01:49:34.688Z,97130.09
2022-10-05T01:52:23.865Z,97014.81
2022-10-05T01:55:11.558Z,97038.88
2022-10-05T01:57:55.375Z,97067.97
2022-10-05T02:00:26.039Z,97082.31
2022-10-05T02:03:04.314Z,97050.06
2022-10-05T02:05:42.353Z,96939.88
2022-10-05T02:08:16.048Z,97050.84
2022-10-05T02:10:52.403Z,97053.88
2022-10-05T02:13:26.910Z,97013.78
2022-10-05T02:16:02.429Z,97067.69
2022-10-05T02:18:36.988Z,97096.06
2022-10-05T02:21:07.040Z,97060.16
2022-10-05T02:23:41.118Z,97010.56
2022-10-05T02:26:13.041Z,97003.59
2022-10-05T02:28:47.733Z,97068.47
2022-10-05T02:31:23.384Z,97046.25
2022-10-05T02:33:51.672Z,96988.31
2022-10-05T02:36:27.657Z,96999.72
2022-10-05T02:39:06.043Z,97056.44
2022-10-05T02:41:48.024Z,97035.41
2022-10-05T02:44:27.562Z,97058.25
2022-10-05T02:47:08.929Z,97021.44
2022-10-05T02:49:46.270Z,97011.47
2022-10-05T02:52:23.128Z,97046.63
2022-10-05T02:55:01.899Z,97071.81
2022-10-05T02:57:37.388Z,97056.47
2022-10-05T03:00:10.249Z,97026.38
2022-10-05T03:02:47.591Z,96983.19
2022-10-05T03:05:25.054Z,97022.47
2022-10-05T03:08:01.759Z,97067.97
2022-10-05T03:10:39.127Z,97028.81
2022-10-05T03:13:16.311Z,97017.06
2022-10-05T03:16:25.716Z,97005.78
2022-10-05T03:19:10.797Z,97014.13
2022-10-05T03:21:54.870Z,97069.31
2022-10-05T03:24:49.723Z,97018.53
2022-10-05T03:27:33.253Z,97038.53
2022-10-05T03:30:07.322Z,97073.28
2022-10-05T03:32:52.369Z,96972.56
2022-10-05T03:35:29.356Z,97070.31
2022-10-05T03:38:09.648Z,97059.53
2022-10-05T03:40:47.243Z,96920.88
2022-10-05T03:43:54.589Z,97012.66
2022-10-05T03:46:36.987Z,97039.75
2022-10-05T03:49:15.887Z,97011.72
2022-10-05T03:51:51.304Z,97028.47
2022-10-05T03:54:24.876Z,97002.28
2022-10-05T03:56:57.367Z,96941.25
2022-10-05T03:59:32.822Z,96998.38
2022-10-05T04:02:09.180Z,97017.19
2022-10-05T04:04:45.175Z,97034.28
2022-10-05T04:07:30.771Z,96988.59
2022-10-05T04:10:01.802Z,96983.72
2022-10-05T04:12:38.076Z,96996.28
2022-10-05T04:15:19.281Z,96966.84
2022-10-05T04:17:53.180Z,96997.78
2022-10-05T04:20:26.878Z,97038.34
2022-10-05T04:23:05.596Z,96996.34
2022-10-05T04:25:40.917Z,96986.59
2022-10-05T04:28:17.404Z,96952.72
2022-10-05T04:30:51.681Z,96996.16
2022-10-05T04:33:22.104Z,96942.50
2022-10-05T04:36:20.378Z,96976.91
2022-10-05T04:39:11.045Z,96951.91
2022-10-05T04:41:57.225Z,96984.88
2022-10-05T04:44:49.632Z,96972.44
2022-10-05T04:48:09.400Z,96984.66
2022-10-05T04:50:51.617Z,96998.78
2022-10-05T04:53:31.314Z,97001.63
2022-10-05T04:56:11.126Z,97013.72
2022-10-05T04:59:01.775Z,97022.50
2022-10-05T05:01:51.125Z,96981.44
2022-10-05T05:04:43.178Z,97005.22
2022-10-05T05:07:29.815Z,96981.13
2022-10-05T05:10:35.844Z,96966.28
2022-10-05T05:13:24.752Z,97055.88
2022-10-05T05:15:59.011Z,97021.84
2022-10-05T05:18:59.238Z,96843.22
2022-10-05T05:21:41.898Z,97044.41
2022-10-05T05:24:20.447Z,97016.41
2022-10-05T05:27:15.379Z,97019.38
2022-10-05T05:29:58.854Z,96986.00
2022-10-05T05:32:41.097Z,97022.13
2022-10-05T05:35:49.127Z,97043.47
2022-10-05T05:38:31.437Z,97007.16
2022-10-05T05:41:11.748Z,97081.19
2022-10-05T05:44:01.018Z,97039.19
2022-10-05T05:47:02.263Z,97064.94
2022-10-05T05:49:37.387Z,96998.41
2022-10-05T05:52:16.976Z,97034.69
2022-10-05T05:54:52.834Z,97041.09
2022-10-05T05:57:26.038Z,97068.13
2022-10-05T06:00:06.172Z,97055.94
2022-10-05T06:02:58.467Z,97061.50
2022-10-05T06:05:35.129Z,97048.78
2022-10-05T06:08:14.967Z,96994.28
2022-10-05T06:10:51.908Z,97033.94
2022-10-05T06:13:26.744Z,97073.06
2022-10-05T06:16:00.115Z,97033.13
2022-10-05T06:18:33.505Z,97104.13
2022-10-05T06:21:06.829Z,97032.41
2022-10-05T06:23:44.144Z,97032.25
2022-10-05T06:26:26.463Z,97073.44
2022-10-05T06:29:02.224Z,97094.56
2022-10-05T06:31:59.174Z,97124.22
2022-10-05T06:35:01.648Z,97086.00
2022-10-05T06:38:09.688Z,97053.63
2022-10-05T06:40:57.670Z,97062.59
2022-10-05T06:43:48.056Z,97098.06
2022-10-05T06:46:41.041Z,97144.28
2022-10-05T06:49:53.728Z,97102.19
2022-10-05T06:53:04.173Z,97117.44
2022-10-05T06:55:43.609Z,97132.28
2022-10-05T06:58:35.675Z,97088.13
2022-10-05T07:01:12.030Z,97130.34
2022-10-05T07:03:56.618Z,97135.03
2022-10-05T07:06:36.720Z,97094.50
2022-10-05T07:09:20.457Z,97115.22
2022-10-05T07:12:18.828Z,97116.19
2022-10-05T07:15:02.515Z,97035.41
2022-10-05T07:17:46.175Z,97141.88
2022-10-05T07:20:20.232Z,97103.47
2022-10-05T07:23:09.707Z,97077.91
2022-10-05T07:25:44.104Z,97115.63
2022-10-05T07:28:20.506Z,97126.19
2022-10-05T07:30:58.912Z,97159.16
2022-10-05T07:33:35.484Z,97152.06
2022-10-05T07:36:31.708Z,97090.53
2022-10-05T07:39:08.661Z,97134.75
2022-10-05T07:41:43.667Z,97156.09
2022-10-05T07:44:17.192Z,97138.53
2022-10-05T07:46:54.872Z,97113.13
2022-10-05T07:49:35.601Z,97070.72
2022-10-05T07:52:08.018Z,97104.31
2022-10-05T07:54:47.307Z,97113.34
2022-10-05T07:57:25.247Z,97078.81
2022-10-05T07:59:59.628Z,97132.75
2022-10-05T08:02:35.673Z,97134.03
2022-10-05T08:05:10.997Z,97147.09
2022-10-05T08:07:40.584Z,97119.03
2022-10-05T08:10:27.696Z,97120.13
2022-10-05T08:13:12.445Z,97122.78
2022-10-05T08:15:44.054Z,97090.31
2022-10-05T08:18:20.622Z,97093.84
2022-10-05T08:20:53.065Z,97097.03
2022-10-05T08:23:25.176Z,97126.09
2022-10-05T08:26:09.705Z,97114.44
2022-10-05T08:28:41.355Z,97123.22
2022-10-05T08:31:18.452Z,97119.28
2022-10-05T08:34:07.235Z,97123.22
2022-10-05T08:36:54.105Z,97230.94
2022-10-05T08:39:25.993Z,97133.78
2022-10-05T08:42:42.401Z,97088.50
2022-10-05T08:46:04.022Z,97088.63
2022-10-05T08:49:30.626Z,97129.38
2022-10-05T08:52:26.043Z,97098.59
2022-10-05T08:55:24.321Z,97059.88
2022-10-05T08:58:25.379Z,97141.81
2022-10-05T09:01:03.149Z,97092.78
2022-10-05T09:04:25.981Z,97118.59
2022-10-05T09:07:18.519Z,97115.34
2022-10-05T09:10:44.170Z,97118.00
2022-10-05T09:13:31.430Z,97114.44
2022-10-05T09:16:28.960Z,97097.13
2022-10-05T09:19:36.906Z,97104.38
2022-10-05T09:22:16.729Z,97112.47
2022-10-05T09:24:57.510Z,97111.19
2022-10-05T09:27:38.106Z,97093.34
2022-10-05T09:30:27.942Z,97073.88
2022-10-05T09:33:39.021Z,97052.22
2022-10-05T09:36:53.966Z,97100.09
2022-10-05T09:40:06.133Z,97064.19
2022-10-05T09:43:03.267Z,97059.63
2022-10-05T09:46:11.655Z,97104.19
2022-10-05T09:49:29.505Z,97059.09
2022-10-05T09:52:19.340Z,97108.81
2022-10-05T09:55:45.295Z,97031.03
2022-10-05T09:59:08.710Z,97066.28
2022-10-05T10:02:29.779Z,96985.25
2022-10-05T10:05:39.291Z,97030.69
2022-10-05T10:08:27.932Z,97081.97
2022-10-05T10:11:12.963Z,97046.09
2022-10-05T10:14:12.266Z,97034.94
2022-10-05T10:17:07.896Z,97009.94
2022-10-05T10:20:07.034Z,97040.03
2022-10-05T10:23:26.257Z,97033.00
2022-10-05T10:26:16.509Z,97027.19
2022-10-05T10:29:00.354Z,97021.03
2022-10-05T10:32:04.502Z,97064.53
2022-10-05T10:35:34.948Z,96989.22
2022-10-05T10:38:30.272Z,97005.22
2022-10-05T10:41:40.409Z,97012.44
2022-10-05T10:45:11.405Z,97069.72
2022-10-05T10:47:54.590Z,97016.13
2022-10-05T10:50:57.997Z,96898.56
2022-10-05T10:54:04.938Z,97017.19
2022-10-05T10:57:00.194Z,96960.72
2022-10-05T11:00:06.774Z,97046.75
2022-10-05T11:03:02.260Z,96981.66
2022-10-05T11:06:07.094Z,97000.31
2022-10-05T11:09:25.704Z,97023.53
2022-10-05T11:13:02.528Z,97038.94
2022-10-05T11:16:20.510Z,96937.88
2022-10-05T11:19:40.278Z,97014.50
2022-10-05T11:22:39.426Z,96992.09
2022-10-05T11:25:44.482Z,96892.13
2022-10-05T11:28:39.562Z,96977.28
2022-10-05T11:31:54.839Z,97008.13
2022-10-05T11:34:53.173Z,96963.34
2022-10-05T11:37:40.751Z,97010.09
2022-10-05T11:40:38.732Z,96990.38
2022-10-05T11:43:41.741Z,96995.16
2022-10-05T11:46:18.352Z,96941.00
2022-10-05T11:49:27.101Z,96979.25
2022-10-05T11:52:07.814Z,96947.47
2022-10-05T11:55:09.932Z,96967.66
2022-10-05T11:57:46.664Z,96956.31
2022-10-05T12:00:18.848Z,96968.94
2022-10-05T12:03:33.383Z,97026.41
2022-10-05T12:06:39.791Z,96973.31
2022-10-05T12:09:25.000Z,96964.63
2022-10-05T12:12:08.271Z,96979.28
2022-10-05T12:14:50.702Z,96940.31
2022-10-05T12:17:28.016Z,96940.22
2022-10-05T12:20:02.534Z,96951.16
2022-10-05T12:22:39.120Z,96969.59
2022-10-05T12:25:23.888Z,96935.59
2022-10-05T12:27:55.958Z,96902.22
2022-10-05T12:30:35.377Z,96947.84
2022-10-05T12:33:13.917Z,96971.09
2022-10-05T12:35:51.812Z,96958.13
2022-10-05T12:38:28.575Z,96908.84
2022-10-05T12:41:09.025Z,96961.22
2022-10-05T12:43:50.487Z,96924.16
2022-10-05T12:46:31.920Z,96955.94
2022-10-05T12:49:40.343Z,96936.59
2022-10-05T12:52:29.313Z,96949.47
2022-10-05T12:55:06.894Z,96891.34
2022-10-05T12:57:48.181Z,96893.78
2022-10-05T13:00:22.898Z,96870.38
2022-10-05T13:02:57.153Z,96852.81
2022-10-05T13:05:31.607Z,96974.09
2022-10-05T13:08:19.068Z,96950.66
2022-10-05T13:10:50.380Z,96978.63
2022-10-05T13:13:38.397Z,96912.38
2022-10-05T13:16:21.139Z,96838.69
2022-10-05T13:19:03.435Z,96895.75
2022-10-05T13:21:55.200Z,96911.91
2022-10-05T13:24:26.686Z,96911.66
2022-10-05T13:27:02.072Z,96910.28
2022-10-05T13:29:38.728Z,96931.88
2022-10-05T13:32:15.715Z,96882.47
2022-10-05T13:34:52.527Z,96942.22
2022-10-05T13:37:31.784Z,96898.59
2022-10-05T13:40:15.885Z,96931.25
2022-10-05T13:42:52.644Z,96907.47
2022-10-05T13:45:26.553Z,96863.78
2022-10-05T13:48:19.073Z,96915.16
2022-10-05T13:50:56.476Z,96820.22
2022-10-05T13:53:33.130Z,96915.53
2022-10-05T13:56:08.040Z,96927.88
2022-10-05T13:58:43.348Z,96897.38
2022-10-05T14:01:19.203Z,96918.53
2022-10-05T14:04:19.791Z,96943.38
2022-10-05T14:06:49.562Z,96714.22
2022-10-05T14:09:31.258Z,96857.03
2022-10-05T14:12:17.174Z,96857.03
2022-10-05T14:14:50.445Z,96899.53
2022-10-05T14:17:41.879Z,96875.38
2022-10-05T14:20:28.795Z,96899.97
2022-10-05T14:23:01.725Z,96874.44
2022-10-05T14:25:31.250Z,96868.94
2022-10-05T14:28:05.214Z,96881.78
2022-10-05T14:30:35.085Z,96808.25
2022-10-05T14:33:17.345Z,96866.81
2022-10-05T14:35:50.125Z,96698.25
2022-10-05T14:38:22.591Z,96822.81
2022-10-05T14:41:22.285Z,96836.63
2022-10-05T14:43:53.122Z,96826.47
2022-10-05T14:46:29.112Z,96840.28
2022-10-05T14:49:22.167Z,96837.50
2022-10-05T14:51:53.411Z,96823.81
2022-10-05T14:54:32.487Z,96895.31
2022-10-05T14:57:19.257Z,96854.69
2022-10-05T15:00:07.624Z,96677.34
2022-10-05T15:02:55.643Z,96799.34
2022-10-05T15:05:33.049Z,96880.75
2022-10-05T15:08:21.485Z,96874.44
2022-10-05T15:10:58.155Z,96836.25
2022-10-05T15:13:32.488Z,96834.06
2022-10-05T15:16:07.419Z,96846.66
2022-10-05T15:18:48.778Z,96864.94
2022-10-05T15:21:40.594Z,96846.59
2022-10-05T15:24:18.242Z,96833.31
2022-10-05T15:26:51.538Z,96769.94
2022-10-05T15:29:59.023Z,96826.69
2022-10-05T15:32:44.672Z,96832.94
2022-10-05T15:35:38.460Z,96824.75
2022-10-05T15:38:20.929Z,96802.63
2022-10-05T15:41:03.640Z,96812.41
2022-10-05T15:43:46.562Z,96830.75
2022-10-05T15:46:19.746Z,96812.53
2022-10-05T15:49:01.712Z,96855.56
2022-10-05T15:51:50.944Z,96815.56
2022-10-05T15:54:58.793Z,96858.03
2022-10-05T15:57:40.391Z,96851.47
2022-10-05T16:00:12.814Z,96775.50
2022-10-05T16:02:47.999Z,96851.28
2022-10-05T16:05:53.110Z,96792.84
2022-10-05T16:08:54.207Z,96801.88
2022-10-05T16:11:45.570Z,96747.06
2022-10-05T16:14:27.939Z,96768.81
2022-10-05T16:17:21.213Z,96869.28
2022-10-05T16:20:04.816Z,96761.63
2022-10-05T16:22:47.380Z,96856.78
2022-10-05T16:25:23.413Z,96822.81
2022-10-05T16:28:07.465Z,96873.03
2022-10-05T16:30:51.377Z,96837.63
2022-10-05T16:33:29.310Z,96834.06
2022-10-05T16:36:07.470Z,96839.63
2022-10-05T16:38:45.682Z,96859.44
2022-10-05T16:41:22.871Z,96849.56
2022-10-05T16:44:00.361Z,96836.13
2022-10-05T16:46:35.478Z,96889.97
2022-10-05T16:49:15.729Z,96887.25
2022-10-05T16:51:55.279Z,96890.22
2022-10-05T16:54:27.999Z,96916.13
2022-10-05T16:57:00.240Z,96818.31
2022-10-05T17:00:08.921Z,96904.69
2022-10-05T17:03:10.241Z,96885.91
2022-10-05T17:06:09.445Z,96842.47
2022-10-05T17:09:11.355Z,96882.63
2022-10-05T17:11:59.091Z,96915.34
2022-10-05T17:14:55.185Z,96927.38
2022-10-05T17:17:38.471Z,96911.31
2022-10-05T17:20:32.847Z,96904.88
2022-10-05T17:23:32.978Z,96873.28
2022-10-05T17:26:32.531Z,96884.66
2022-10-05T17:29:10.261Z,96914.59
2022-10-05T17:32:11.177Z,96923.66
2022-10-05T17:34:41.199Z,96780.31
2022-10-05T17:37:36.270Z,96951.47
2022-10-05T17:40:34.219Z,96900.84
2022-10-05T17:43:25.204Z,96872.16
2022-10-05T17:46:00.628Z,96943.38
2022-10-05T17:49:18.379Z,96965.47
2022-10-05T17:52:21.425Z,96945.69
2022-10-05T17:55:27.970Z,96972.44
2022-10-05T17:58:02.070Z,96954.66
2022-10-05T18:00:43.932Z,96984.66
2022-10-05T18:03:36.330Z,96972.97
2022-10-05T18:06:37.322Z,96966.78
2022-10-05T18:09:33.898Z,96937.72
2022-10-05T18:12:41.859Z,96973.78
2022-10-05T18:15:48.802Z,96929.75
2022-10-05T18:18:57.281Z,96986.53
2022-10-05T18:21:39.867Z,97019.72
2022-10-05T18:24:53.230Z,96957.06
2022-10-05T18:28:05.375Z,96997.78
2022-10-05T18:30:49.050Z,96916.06
2022-10-05T18:33:46.913Z,96998.72
2022-10-05T18:36:36.876Z,96778.84
2022-10-05T18:39:24.768Z,96940.09
2022-10-05T18:42:08.126Z,96998.06
2022-10-05T18:44:42.758Z,96982.06
2022-10-05T18:47:20.728Z,97005.13
2022-10-05T18:50:16.647Z,96930.69
2022-10-05T18:52:59.398Z,97050.72
2022-10-05T18:55:34.666Z,97001.13
2022-10-05T18:58:22.256Z,97045.69
2022-10-05T19:01:44.471Z,96916.47
2022-10-05T19:04:24.576Z,96976.38
2022-10-05T19:07:05.923Z,97027.75
2022-10-05T19:09:54.701Z,97010.78
2022-10-05T19:12:41.269Z,97018.53
2022-10-05T19:15:21.362Z,97032.94
2022-10-05T19:18:44.419Z,97027.31
2022-10-05T19:21:30.305Z,96990.66
2022-10-05T19:24:21.908Z,97040.41
2022-10-05T19:27:06.823Z,96914.75
2022-10-05T19:30:08.705Z,96984.16
2022-10-05T19:32:47.933Z,97068.13
2022-10-05T19:35:28.883Z,97119.63
2022-10-05T19:38:16.809Z,97002.03
2022-10-05T19:40:57.664Z,97075.19
2022-10-05T19:43:50.343Z,97054.47
2022-10-05T19:46:30.848Z,97079.19
2022-10-05T19:49:00.218Z,97051.34
2022-10-05T19:51:30.965Z,97068.31
2022-10-05T19:54:02.971Z,96977.16
2022-10-05T19:56:35.250Z,97090.25
2022-10-05T19:59:14.186Z,97095.13
2022-10-05T20:01:49.020Z,97102.19
2022-10-05T20:04:35.033Z,97053.19
2022-10-05T20:07:04.115Z,97117.47
2022-10-05T20:09:55.362Z,97095.16
2022-10-05T20:12:24.101Z,97125.25
2022-10-05T20:15:27.557Z,97125.78
2022-10-05T20:18:26.869Z,97110.53
2022-10-05T20:20:56.653Z,97116.69
2022-10-05T20:23:28.001Z,97075.16
2022-10-05T20:26:14.005Z,97102.47
2022-10-05T20:28:44.413Z,97117.53
2022-10-05T20:31:14.512Z,97128.16
2022-10-05T20:33:44.176Z,97051.50
2022-10-05T20:36:12.387Z,97151.13
2022-10-05T20:38:41.285Z,97179.38
2022-10-05T20:41:10.413Z,97136.59
2022-10-05T20:43:39.456Z,97175.44
2022-10-05T20:46:08.025Z,97140.06
2022-10-05T20:48:36.565Z,97148.03
2022-10-05T20:51:06.512Z,97154.63
2022-10-05T20:53:34.753Z,97153.59
2022-10-05T20:56:04.448Z,97173.09
2022-10-05T20:58:32.662Z,97179.88
2022-10-05T21:01:19.875Z,97163.72
2022-10-05T21:03:48.559Z,97183.00
2022-10-05T21:06:18.986Z,97176.72
2022-10-05T21:08:47.347Z,97197.16
2022-10-05T21:11:15.906Z,97156.22
2022-10-05T21:13:45.795Z,97198.16
2022-10-05T21:16:15.520Z,97181.94
2022-10-05T21:18:46.922Z,97209.66
2022-10-05T21:21:17.393Z,97185.88
2022-10-05T21:23:45.801Z,97231.34
2022-10-05T21:26:14.859Z,97153.78
2022-10-05T21:28:43.293Z,97145.88
2022-10-05T21:31:12.002Z,97255.13
2022-10-05T21:33:40.275Z,97209.69
2022-10-05T21:36:08.512Z,97214.50
2022-10-05T21:38:38.209Z,97228.38
2022-10-05T21:41:07.709Z,97225.19
2022-10-05T21:43:36.099Z,97159.97
2022-10-05T21:46:04.883Z,97218.00
2022-10-05T21:48:34.873Z,97210.78
2022-10-05T21:51:04.807Z,97224.06
2022-10-05T21:53:38.921Z,97242.78
2022-10-05T21:56:12.969Z,97274.31
2022-10-05T21:58:43.747Z,97256.94
2022-10-05T22:01:12.075Z,97248.97
2022-10-05T22:03:43.284Z,97243.38
2022-10-05T22:06:11.766Z,97225.72
2022-10-05T22:08:41.488Z,97265.44
2022-10-05T22:11:15.504Z,97240.28
2022-10-05T22:13:46.172Z,97230.25
2022-10-05T22:16:15.992Z,97189.97
2022-10-05T22:18:44.493Z,97194.69
2022-10-05T22:21:14.900Z,97255.13
2022-10-05T22:23:46.875Z,97254.88
2022-10-05T22:26:18.192Z,97286.69
2022-10-05T22:28:48.076Z,97233.66
2022-10-05T22:31:16.981Z,97261.94
2022-10-05T22:33:45.233Z,97248.75
2022-10-05T22:36:13.522Z,97261.25
2022-10-05T22:38:41.842Z,97246.25
2022-10-05T22:41:13.428Z,97303.53
2022-10-05T22:43:41.910Z,97285.00
2022-10-05T22:46:11.818Z,97281.31
2022-10-05T22:48:40.567Z,97288.22
2022-10-05T22:51:09.685Z,97274.09
2022-10-05T22:53:38.218Z,97266.19
2022-10-05T22:56:08.838Z,97232.81
2022-10-05T22:58:42.057Z,97218.53
2022-10-05T23:01:12.384Z,97312.22
2022-10-05T23:03:41.123Z,97125.78
2022-10-05T23:06:11.892Z,97271.09
2022-10-05T23:08:41.120Z,97297.13
2022-10-05T23:11:12.193Z,97275.16
2022-10-05T23:13:42.711Z,97295.94
2022-10-05T23:16:13.762Z,97285.84
2022-10-05T23:18:42.853Z,97307.44
2022-10-05T23:21:12.643Z,97307.31
2022-10-05T23:23:47.255Z,97287.78
2022-10-05T23:26:16.655Z,97274.25
2022-10-05T23:28:47.518Z,97273.19
2022-10-05T23:31:23.432Z,97288.41
2022-10-05T23:33:52.134Z,97354.59
2022-10-05T23:36:22.493Z,97319.13
2022-10-05T23:38:51.133Z,97297.38
2022-10-05T23:41:19.657Z,97232.63
2022-10-05T23:43:49.523Z,97268.53
2022-10-05T23:46:18.590Z,97299.53
2022-10-05T23:48:47.228Z,97329.59
2022-10-05T23:51:16.226Z,97317.06
2022-10-05T23:53:44.729Z,97322.22
2022-10-05T23:56:13.293Z,97312.41
2022-10-05T23:58:41.842Z,97310.97
